createdAt,value
2018-09-23T00:00:42.211Z,10.40
2018-09-23T00:03:12.313Z,10.50
2018-09-23T00:05:42.432Z,10.50
2018-09-23T00:08:12.536Z,10.60
2018-09-23T00:10:43.370Z,10.60
2018-09-23T00:13:13.584Z,10.60
2018-09-23T00:15:44.016Z,10.70
2018-09-23T00:18:14.140Z,10.70
2018-09-23T00:20:44.237Z,11.00
2018-09-23T00:23:14.452Z,11.00
2018-09-23T00:25:44.557Z,10.80
2018-09-23T00:28:14.756Z,11.00
2018-09-23T00:30:44.896Z,11.10
2018-09-23T00:33:15.029Z,11.10
2018-09-23T00:35:45.122Z,10.90
2018-09-23T00:38:15.324Z,10.90
2018-09-23T00:40:45.425Z,10.80
2018-09-23T00:43:15.555Z,10.90
2018-09-23T00:45:45.664Z,11.10
2018-09-23T00:48:15.961Z,11.20
2018-09-23T00:50:46.053Z,11.10
2018-09-23T00:53:17.028Z,10.90
2018-09-23T00:55:47.132Z,10.90
2018-09-23T00:58:17.228Z,11.00
2018-09-23T01:00:47.329Z,11.00
2018-09-23T01:03:17.432Z,11.00
2018-09-23T01:05:47.628Z,11.00
2018-09-23T01:08:17.722Z,10.90
2018-09-23T01:10:47.864Z,11.00
2018-09-23T01:13:17.986Z,10.90
2018-09-23T01:15:48.088Z,11.00
2018-09-23T01:18:18.257Z,11.00
2018-09-23T01:20:48.500Z,11.10
2018-09-23T01:23:18.620Z,11.00
2018-09-23T01:25:48.724Z,11.00
2018-09-23T01:28:18.838Z,10.90
2018-09-23T01:30:48.965Z,10.90
2018-09-23T01:33:19.079Z,10.90
2018-09-23T01:35:49.172Z,11.00
2018-09-23T01:38:19.328Z,11.00
2018-09-23T01:40:49.464Z,11.00
2018-09-23T01:43:19.557Z,11.00
2018-09-23T01:45:49.649Z,11.00
2018-09-23T01:48:19.771Z,11.10
2018-09-23T01:50:49.857Z,11.00
2018-09-23T01:53:19.936Z,11.10
2018-09-23T01:55:50.072Z,11.20
2018-09-23T01:58:20.174Z,11.20
2018-09-23T02:00:50.357Z,11.20
2018-09-23T02:03:20.464Z,11.20
2018-09-23T02:05:50.592Z,11.20
2018-09-23T02:08:20.693Z,11.10
2018-09-23T02:10:50.902Z,11.10
2018-09-23T02:13:20.991Z,11.10
2018-09-23T02:15:51.193Z,11.10
2018-09-23T02:18:21.284Z,11.10
2018-09-23T02:20:51.384Z,11.20
2018-09-23T02:23:21.478Z,11.10
2018-09-23T02:25:51.580Z,11.10
2018-09-23T02:28:21.665Z,11.00
2018-09-23T02:30:51.752Z,11.00
2018-09-23T02:33:21.837Z,10.90
2018-09-23T02:35:51.928Z,10.90
2018-09-23T02:38:22.026Z,11.00
2018-09-23T02:40:52.127Z,11.00
2018-09-23T02:43:22.246Z,11.00
2018-09-23T02:45:52.349Z,11.00
2018-09-23T02:48:22.451Z,11.00
2018-09-23T02:50:52.526Z,11.10
2018-09-23T02:53:22.613Z,11.10
2018-09-23T02:55:52.964Z,11.00
2018-09-23T02:58:23.057Z,11.10
2018-09-23T03:00:53.249Z,11.00
2018-09-23T03:03:23.349Z,11.10
2018-09-23T03:05:53.554Z,11.00
2018-09-23T03:08:24.001Z,11.00
2018-09-23T03:10:54.337Z,11.10
2018-09-23T03:13:24.558Z,11.00
2018-09-23T03:15:54.850Z,11.10
2018-09-23T03:18:24.973Z,11.10
2018-09-23T03:20:55.044Z,11.30
2018-09-23T03:23:25.208Z,11.20
2018-09-23T03:25:55.352Z,11.20
2018-09-23T03:28:25.476Z,11.10
2018-09-23T03:30:55.597Z,11.20
2018-09-23T03:33:25.684Z,11.20
2018-09-23T03:35:56.112Z,11.20
2018-09-23T03:38:26.597Z,11.20
2018-09-23T03:40:56.688Z,11.20
2018-09-23T03:43:26.805Z,11.20
2018-09-23T03:45:56.905Z,11.20
2018-09-23T03:48:27.096Z,11.10
2018-09-23T03:50:57.277Z,11.20
2018-09-23T03:53:27.375Z,11.10
2018-09-23T03:55:57.481Z,11.20
2018-09-23T03:58:27.573Z,11.30
2018-09-23T04:00:57.665Z,11.30
2018-09-23T04:03:27.756Z,11.20
2018-09-23T04:05:57.841Z,11.20
2018-09-23T04:08:27.937Z,11.30
2018-09-23T04:10:58.061Z,11.30
2018-09-23T04:13:28.166Z,11.30
2018-09-23T04:15:58.271Z,11.30
2018-09-23T04:18:28.385Z,11.10
2018-09-23T04:20:58.457Z,11.10
2018-09-23T04:23:28.557Z,11.10
2018-09-23T04:25:58.644Z,11.10
2018-09-23T04:28:28.820Z,11.00
2018-09-23T04:30:58.918Z,11.10
2018-09-23T04:33:29.055Z,11.10
2018-09-23T04:35:59.173Z,11.30
2018-09-23T04:38:29.276Z,11.20
2018-09-23T04:40:59.416Z,11.30
2018-09-23T04:43:29.504Z,11.40
2018-09-23T04:45:59.657Z,11.30
2018-09-23T04:48:29.749Z,11.20
2018-09-23T04:50:59.856Z,11.30
2018-09-23T04:53:29.989Z,11.30
2018-09-23T04:56:00.165Z,11.20
2018-09-23T04:58:30.272Z,11.30
2018-09-23T05:01:00.368Z,11.30
2018-09-23T05:03:30.461Z,11.30
2018-09-23T05:06:00.632Z,11.30
2018-09-23T05:08:30.777Z,11.30
2018-09-23T05:11:02.928Z,11.30
2018-09-23T05:13:33.032Z,11.30
2018-09-23T05:16:03.193Z,11.20
2018-09-23T05:18:33.330Z,11.20
2018-09-23T05:21:03.409Z,11.20
2018-09-23T05:23:33.693Z,11.10
2018-09-23T05:26:03.889Z,11.30
2018-09-23T05:28:33.992Z,11.40
2018-09-23T05:31:04.238Z,11.50
2018-09-23T05:33:34.428Z,11.50
2018-09-23T05:36:04.577Z,11.50
2018-09-23T05:38:34.672Z,11.60
2018-09-23T05:41:04.804Z,11.60
2018-09-23T05:43:34.941Z,11.70
2018-09-23T05:46:05.040Z,11.70
2018-09-23T05:48:35.149Z,11.70
2018-09-23T05:51:05.329Z,11.80
2018-09-23T05:53:35.414Z,11.80
2018-09-23T05:56:05.580Z,11.70
2018-09-23T05:58:35.665Z,11.70
2018-09-23T06:01:05.824Z,11.80
2018-09-23T06:03:36.735Z,11.80
2018-09-23T06:06:07.099Z,12.00
2018-09-23T06:08:37.306Z,11.90
2018-09-23T06:11:07.685Z,12.00
2018-09-23T06:13:37.728Z,11.90
2018-09-23T06:16:07.892Z,12.00
2018-09-23T06:18:38.009Z,12.00
2018-09-23T06:21:08.759Z,12.00
2018-09-23T06:23:39.111Z,12.00
2018-09-23T06:26:09.339Z,12.10
2018-09-23T06:28:41.209Z,12.10
2018-09-23T06:31:11.496Z,12.40
2018-09-23T06:33:41.733Z,12.50
2018-09-23T06:36:12.587Z,12.60
2018-09-23T06:38:42.828Z,12.50
2018-09-23T06:41:13.071Z,12.50
2018-09-23T06:43:43.437Z,12.60
2018-09-23T06:46:13.696Z,12.50
2018-09-23T06:48:43.873Z,12.70
2018-09-23T06:51:14.060Z,12.80
2018-09-23T06:53:44.263Z,12.90
2018-09-23T06:56:14.433Z,13.00
2018-09-23T06:58:44.961Z,13.10
2018-09-23T07:01:15.217Z,13.20
2018-09-23T07:03:45.354Z,13.30
2018-09-23T07:06:15.520Z,13.40
2018-09-23T07:08:46.422Z,13.50
2018-09-23T07:11:16.672Z,13.70
2018-09-23T07:13:46.824Z,13.60
2018-09-23T07:16:17.128Z,13.60
2018-09-23T07:18:47.678Z,13.70
2018-09-23T07:21:18.000Z,14.00
2018-09-23T07:23:48.161Z,14.20
2018-09-23T07:26:18.254Z,14.30
2018-09-23T07:28:48.654Z,14.30
2018-09-23T07:31:18.802Z,14.40
2018-09-23T07:33:48.902Z,14.30
2018-09-23T07:36:19.016Z,14.50
2018-09-23T07:38:49.324Z,14.50
2018-09-23T07:41:19.481Z,14.50
2018-09-23T07:43:49.669Z,14.30
2018-09-23T07:46:19.810Z,14.30
2018-09-23T07:48:49.921Z,14.20
2018-09-23T07:51:20.292Z,14.10
2018-09-23T07:53:50.659Z,14.10
2018-09-23T07:56:21.946Z,14.00
2018-09-23T07:58:52.141Z,14.00
2018-09-23T08:01:22.428Z,14.10
2018-09-23T08:03:52.748Z,14.30
2018-09-23T08:06:22.885Z,14.50
2018-09-23T08:08:52.988Z,15.10
2018-09-23T08:11:23.108Z,15.70
2018-09-23T08:13:53.369Z,16.20
2018-09-23T08:16:23.455Z,16.10
2018-09-23T08:18:53.632Z,16.30
2018-09-23T08:21:24.092Z,16.10
2018-09-23T08:23:54.226Z,15.90
2018-09-23T08:26:24.357Z,15.80
2018-09-23T08:28:54.583Z,15.90
2018-09-23T08:31:24.665Z,15.70
2018-09-23T08:33:54.800Z,16.10
2018-09-23T08:36:24.953Z,15.90
2018-09-23T08:38:55.069Z,15.90
2018-09-23T08:41:25.269Z,15.80
2018-09-23T08:43:55.489Z,15.70
2018-09-23T08:46:25.857Z,15.60
2018-09-23T08:48:55.976Z,15.50
2018-09-23T08:51:26.108Z,15.20
2018-09-23T08:53:56.285Z,15.20
2018-09-23T08:56:26.423Z,15.10
2018-09-23T08:58:56.543Z,15.20
2018-09-23T09:01:26.626Z,15.30
2018-09-23T09:03:56.910Z,15.20
2018-09-23T09:06:26.997Z,15.10
2018-09-23T09:08:57.156Z,14.90
2018-09-23T09:11:27.303Z,15.00
2018-09-23T09:13:57.476Z,14.80
2018-09-23T09:16:27.577Z,14.70
2018-09-23T09:18:57.680Z,14.50
2018-09-23T09:21:27.779Z,14.60
2018-09-23T09:23:57.872Z,14.60
2018-09-23T09:26:27.993Z,14.60
2018-09-23T09:28:58.080Z,14.60
2018-09-23T09:31:28.216Z,14.80
2018-09-23T09:33:58.349Z,15.00
2018-09-23T09:36:28.428Z,15.10
2018-09-23T09:38:58.543Z,15.10
2018-09-23T09:41:28.684Z,15.30
2018-09-23T09:43:58.855Z,15.30
2018-09-23T09:46:28.989Z,15.40
2018-09-23T09:48:59.077Z,15.40
2018-09-23T09:51:29.168Z,15.40
2018-09-23T09:53:59.276Z,15.50
2018-09-23T09:56:29.377Z,15.70
2018-09-23T09:58:59.470Z,15.70
2018-09-23T10:01:29.588Z,15.70
2018-09-23T10:03:59.759Z,15.80
2018-09-23T10:06:29.845Z,15.90
2018-09-23T10:08:59.955Z,16.20
2018-09-23T10:11:30.055Z,16.30
2018-09-23T10:14:00.169Z,16.20
2018-09-23T10:16:30.311Z,16.50
2018-09-23T10:19:00.429Z,16.50
2018-09-23T10:21:30.551Z,16.80
2018-09-23T10:24:00.699Z,16.90
2018-09-23T10:26:30.817Z,16.80
2018-09-23T10:29:00.932Z,17.00
2018-09-23T10:31:31.099Z,17.10
2018-09-23T10:34:01.173Z,17.20
2018-09-23T10:36:31.253Z,17.30
2018-09-23T10:39:01.393Z,17.30
2018-09-23T10:41:31.503Z,17.30
2018-09-23T10:44:01.592Z,17.30
2018-09-23T10:46:31.688Z,17.30
2018-09-23T10:49:01.785Z,17.40
2018-09-23T10:51:31.880Z,17.20
2018-09-23T10:54:02.067Z,17.00
2018-09-23T10:56:32.153Z,16.90
2018-09-23T10:59:02.264Z,16.70
2018-09-23T11:01:32.373Z,16.60
2018-09-23T11:04:02.664Z,16.30
2018-09-23T11:06:32.580Z,16.30
2018-09-23T11:09:02.732Z,16.50
2018-09-23T11:11:32.908Z,16.70
2018-09-23T11:14:03.080Z,16.80
2018-09-23T11:16:33.188Z,16.80
2018-09-23T11:19:03.289Z,16.80
2018-09-23T11:21:33.382Z,17.00
2018-09-23T11:24:03.485Z,17.00
2018-09-23T11:26:33.663Z,16.90
2018-09-23T11:29:03.969Z,17.10
2018-09-23T11:31:34.125Z,17.00
2018-09-23T11:34:04.240Z,17.00
2018-09-23T11:36:34.329Z,17.00
2018-09-23T11:39:07.296Z,17.00
2018-09-23T11:41:37.409Z,16.90
2018-09-23T11:44:07.565Z,16.80
2018-09-23T11:46:37.679Z,16.60
2018-09-23T11:49:07.818Z,16.50
2018-09-23T11:51:37.940Z,16.40
2018-09-23T11:54:08.948Z,16.40
2018-09-23T11:56:39.719Z,16.50
2018-09-23T11:59:10.538Z,16.40
2018-09-23T12:01:40.645Z,16.30
2018-09-23T12:04:10.786Z,16.00
2018-09-23T12:06:40.936Z,15.90
2018-09-23T12:09:13.089Z,15.90
2018-09-23T12:11:43.305Z,15.90
2018-09-23T12:14:13.492Z,15.90
2018-09-23T12:16:44.196Z,16.20
2018-09-23T12:19:14.912Z,16.30
2018-09-23T12:21:45.270Z,16.30
2018-09-23T12:24:15.847Z,16.40
2018-09-23T12:26:46.606Z,16.50
2018-09-23T12:29:16.917Z,16.50
2018-09-23T12:31:47.269Z,16.50
2018-09-23T12:34:17.356Z,16.60
2018-09-23T12:36:47.824Z,16.60
2018-09-23T12:39:18.149Z,16.60
2018-09-23T12:41:48.260Z,16.70
2018-09-23T12:44:18.537Z,16.80
2018-09-23T12:46:49.832Z,16.90
2018-09-23T12:49:20.058Z,16.70
2018-09-23T12:51:50.188Z,16.80
2018-09-23T12:54:20.289Z,16.70
2018-09-23T12:56:51.881Z,16.80
2018-09-23T12:59:22.469Z,16.70
2018-09-23T13:01:52.620Z,16.70
2018-09-23T13:04:22.727Z,16.80
2018-09-23T13:06:52.873Z,16.90
2018-09-23T13:09:23.047Z,16.90
2018-09-23T13:11:54.928Z,16.90
2018-09-23T13:14:25.075Z,16.90
2018-09-23T13:16:55.177Z,16.60
2018-09-23T13:19:25.316Z,16.60
2018-09-23T13:21:55.756Z,16.80
2018-09-23T13:24:25.860Z,16.80
2018-09-23T13:26:57.546Z,16.60
2018-09-23T13:29:27.652Z,16.60
2018-09-23T13:31:57.807Z,16.60
2018-09-23T13:34:28.048Z,16.40
2018-09-23T13:36:58.135Z,16.30
2018-09-23T13:39:28.241Z,16.30
2018-09-23T13:41:58.330Z,16.30
2018-09-23T13:44:28.444Z,16.30
2018-09-23T13:46:58.547Z,16.30
2018-09-23T13:49:29.173Z,16.20
2018-09-23T13:51:59.286Z,16.30
2018-09-23T13:54:29.408Z,16.50
2018-09-23T13:56:59.485Z,16.60
2018-09-23T13:59:29.592Z,16.60
2018-09-23T14:01:59.811Z,16.60
2018-09-23T14:04:29.967Z,16.70
2018-09-23T14:07:00.113Z,16.80
2018-09-23T14:09:30.410Z,16.80
2018-09-23T14:12:00.602Z,16.90
2018-09-23T14:14:30.681Z,16.90
2018-09-23T14:17:00.788Z,17.00
2018-09-23T14:19:30.912Z,17.00
2018-09-23T14:22:01.012Z,17.10
2018-09-23T14:24:31.117Z,17.00
2018-09-23T14:27:01.249Z,17.00
2018-09-23T14:29:31.326Z,17.10
2018-09-23T14:32:01.461Z,16.90
2018-09-23T14:34:31.545Z,16.90
2018-09-23T14:37:01.659Z,16.90
2018-09-23T14:39:31.741Z,17.00
2018-09-23T14:42:01.875Z,17.00
2018-09-23T14:44:31.968Z,16.90
2018-09-23T14:47:02.085Z,16.80
2018-09-23T14:49:32.180Z,17.10
2018-09-23T14:52:02.277Z,17.00
2018-09-23T14:54:32.482Z,17.10
2018-09-23T14:57:02.504Z,17.10
2018-09-23T14:59:32.660Z,17.00
2018-09-23T15:02:04.929Z,17.00
2018-09-23T15:04:35.046Z,17.00
2018-09-23T15:07:05.144Z,17.00
2018-09-23T15:09:35.410Z,16.90
2018-09-23T15:12:05.532Z,16.80
2018-09-23T15:14:35.891Z,16.70
2018-09-23T15:17:06.015Z,16.60
2018-09-23T15:19:36.189Z,16.40
2018-09-23T15:22:06.358Z,16.20
2018-09-23T15:24:36.469Z,16.20
2018-09-23T15:27:06.675Z,16.00
2018-09-23T15:29:36.801Z,16.00
2018-09-23T15:32:06.991Z,15.90
2018-09-23T15:34:37.119Z,16.00
2018-09-23T15:37:07.263Z,16.00
2018-09-23T15:39:37.370Z,16.00
2018-09-23T15:42:07.573Z,16.10
2018-09-23T15:44:37.685Z,16.00
2018-09-23T15:47:07.835Z,16.00
2018-09-23T15:49:38.022Z,16.00
2018-09-23T15:52:08.769Z,15.90
2018-09-23T15:54:38.852Z,15.90
2018-09-23T15:57:09.234Z,15.70
2018-09-23T15:59:39.347Z,15.70
2018-09-23T16:02:09.470Z,15.60
2018-09-23T16:04:39.603Z,15.60
2018-09-23T16:07:09.717Z,15.50
2018-09-23T16:09:39.838Z,15.50
2018-09-23T16:12:09.980Z,15.40
2018-09-23T16:14:40.110Z,15.40
2018-09-23T16:17:10.277Z,15.30
2018-09-23T16:19:40.381Z,15.20
2018-09-23T16:22:10.584Z,15.20
2018-09-23T16:24:40.732Z,15.20
2018-09-23T16:27:10.841Z,15.10
2018-09-23T16:29:41.048Z,14.90
2018-09-23T16:32:11.188Z,14.90
2018-09-23T16:34:41.289Z,14.80
2018-09-23T16:37:11.416Z,14.80
2018-09-23T16:39:41.544Z,14.60
2018-09-23T16:42:11.688Z,14.50
2018-09-23T16:44:41.817Z,14.50
2018-09-23T16:47:11.977Z,14.60
2018-09-23T16:49:42.070Z,14.30
2018-09-23T16:52:12.220Z,14.30
2018-09-23T16:54:42.514Z,14.30
2018-09-23T16:57:12.596Z,14.20
2018-09-23T16:59:42.696Z,14.10
2018-09-23T17:02:12.849Z,14.00
2018-09-23T17:04:42.932Z,13.80
2018-09-23T17:07:13.032Z,13.70
2018-09-23T17:09:43.190Z,13.50
2018-09-23T17:12:13.328Z,13.40
2018-09-23T17:14:43.460Z,13.30
2018-09-23T17:17:13.620Z,13.20
2018-09-23T17:19:43.751Z,13.10
2018-09-23T17:22:14.002Z,13.00
2018-09-23T17:24:44.099Z,13.00
2018-09-23T17:27:14.225Z,13.00
2018-09-23T17:29:44.342Z,13.20
2018-09-23T17:32:14.531Z,13.20
2018-09-23T17:34:44.684Z,13.10
2018-09-23T17:37:14.770Z,12.90
2018-09-23T17:39:44.869Z,12.70
2018-09-23T17:42:14.978Z,12.70
2018-09-23T17:44:45.086Z,12.60
2018-09-23T17:47:15.200Z,12.50
2018-09-23T17:49:45.337Z,12.50
2018-09-23T17:52:15.472Z,12.50
2018-09-23T17:54:45.592Z,12.40
2018-09-23T17:57:15.716Z,12.40
2018-09-23T17:59:45.858Z,12.30
2018-09-23T18:02:15.949Z,12.20
2018-09-23T18:04:46.076Z,12.20
2018-09-23T18:07:16.244Z,12.30
2018-09-23T18:09:46.340Z,12.20
2018-09-23T18:12:16.452Z,12.20
2018-09-23T18:14:46.584Z,12.20
2018-09-23T18:17:16.660Z,12.20
2018-09-23T18:19:46.884Z,12.20
2018-09-23T18:22:16.977Z,12.20
2018-09-23T18:24:47.069Z,12.20
2018-09-23T18:27:17.173Z,12.20
2018-09-23T18:29:47.948Z,12.20
2018-09-23T18:32:18.058Z,12.20
2018-09-23T18:34:48.148Z,12.20
2018-09-23T18:37:18.297Z,12.40
2018-09-23T18:39:48.365Z,12.40
2018-09-23T18:42:18.481Z,12.40
2018-09-23T18:44:48.577Z,12.40
2018-09-23T18:47:18.704Z,12.20
2018-09-23T18:49:48.818Z,12.20
2018-09-23T18:52:18.940Z,12.20
2018-09-23T18:54:54.141Z,12.30
2018-09-23T18:57:24.277Z,12.30
2018-09-23T18:59:54.385Z,12.20
2018-09-23T19:02:24.673Z,12.20
2018-09-23T19:04:55.141Z,12.10
2018-09-23T19:07:25.289Z,12.10
2018-09-23T19:09:55.412Z,12.10
2018-09-23T19:12:25.517Z,12.10
2018-09-23T19:14:55.621Z,12.10
2018-09-23T19:17:25.723Z,12.10
2018-09-23T19:20:00.940Z,12.20
2018-09-23T19:22:36.288Z,12.10
2018-09-23T19:25:06.545Z,12.00
2018-09-23T19:27:36.633Z,11.90
2018-09-23T19:30:07.201Z,11.80
2018-09-23T19:32:37.455Z,11.90
2018-09-23T19:35:07.560Z,12.10
2018-09-23T19:37:37.657Z,12.00
2018-09-23T19:40:07.788Z,12.00
2018-09-23T19:42:38.109Z,12.00
2018-09-23T19:45:08.265Z,12.00
2018-09-23T19:47:38.361Z,12.20
2018-09-23T19:50:08.596Z,12.30
2018-09-23T19:52:38.745Z,12.30
2018-09-23T19:55:08.861Z,12.40
2018-09-23T19:57:38.992Z,12.60
2018-09-23T20:00:09.144Z,12.50
2018-09-23T20:02:39.248Z,12.60
2018-09-23T20:07:43.587Z,12.40
2018-09-23T20:10:13.772Z,12.40
2018-09-23T20:12:43.982Z,12.30
2018-09-23T20:15:16.835Z,12.30
2018-09-23T20:17:48.032Z,12.30
2018-09-23T20:20:18.271Z,12.40
2018-09-23T20:22:48.540Z,12.50
2018-09-23T20:25:18.755Z,12.50
2018-09-23T20:27:48.963Z,12.50
2018-09-23T20:30:19.155Z,12.40
2018-09-23T20:32:49.327Z,12.50
2018-09-23T20:35:19.531Z,12.70
2018-09-23T20:37:49.711Z,12.40
2018-09-23T20:40:19.915Z,12.40
2018-09-23T20:42:50.171Z,12.50
2018-09-23T20:45:20.343Z,12.50
2018-09-23T20:47:50.617Z,12.70
2018-09-23T20:50:20.786Z,12.80
2018-09-23T20:52:51.006Z,12.80
2018-09-23T20:55:21.209Z,12.90
2018-09-23T20:57:51.403Z,12.80
2018-09-23T21:00:21.617Z,12.90
2018-09-23T21:02:51.792Z,12.90
2018-09-23T21:05:28.579Z,12.90
2018-09-23T21:08:04.980Z,13.00
2018-09-23T21:10:35.166Z,12.90
2018-09-23T21:13:05.379Z,13.10
2018-09-23T21:15:35.543Z,13.10
2018-09-23T21:18:05.751Z,13.00
2018-09-23T21:20:42.706Z,13.10
2018-09-23T21:23:12.923Z,13.10
2018-09-23T21:25:43.113Z,13.10
2018-09-23T21:28:13.315Z,13.00
2018-09-23T21:30:43.482Z,12.90
2018-09-23T21:33:13.673Z,12.80
2018-09-23T21:35:50.528Z,12.80
2018-09-23T21:38:20.719Z,12.90
2018-09-23T21:40:50.896Z,13.00
2018-09-23T21:43:21.120Z,12.70
2018-09-23T21:45:51.595Z,12.80
2018-09-23T21:48:21.842Z,12.80
2018-09-23T21:50:52.020Z,12.70
2018-09-23T21:53:22.227Z,12.80
2018-09-23T21:55:52.438Z,12.80
2018-09-23T21:58:22.631Z,12.90
2018-09-23T22:00:52.857Z,13.00
2018-09-23T22:03:23.140Z,13.00
2018-09-23T22:05:53.306Z,13.20
2018-09-23T22:08:23.482Z,13.30
2018-09-23T22:10:53.671Z,13.40
2018-09-23T22:13:23.866Z,13.60
2018-09-23T22:15:54.063Z,13.70
2018-09-23T22:18:24.247Z,13.90
2018-09-23T22:20:54.431Z,14.00
2018-09-23T22:23:24.653Z,14.10
2018-09-23T22:25:54.871Z,14.10
2018-09-23T22:28:25.083Z,14.20
2018-09-23T22:30:55.261Z,14.30
2018-09-23T22:33:25.475Z,14.50
2018-09-23T22:35:55.655Z,14.40
2018-09-23T22:38:25.823Z,14.40
2018-09-23T22:40:56.078Z,14.20
2018-09-23T22:43:26.334Z,14.30
2018-09-23T22:45:56.731Z,14.30
2018-09-23T22:48:26.943Z,14.30
2018-09-23T22:50:57.123Z,14.40
2018-09-23T22:53:28.293Z,14.90
2018-09-23T22:55:58.516Z,15.50
2018-09-23T22:58:28.715Z,15.80
2018-09-23T23:00:58.934Z,15.90
2018-09-23T23:03:29.120Z,15.90
2018-09-23T23:06:02.227Z,16.10
2018-09-23T23:08:32.417Z,16.30
2018-09-23T23:11:02.683Z,16.40
2018-09-23T23:13:32.975Z,16.50
2018-09-23T23:16:03.269Z,16.80
2018-09-23T23:18:33.569Z,16.80
2018-09-23T23:21:03.797Z,16.90
2018-09-23T23:23:40.523Z,16.90
2018-09-23T23:26:10.731Z,16.90
2018-09-23T23:28:47.479Z,16.80
2018-09-23T23:31:17.680Z,16.90
2018-09-23T23:33:47.922Z,16.70
2018-09-23T23:36:18.091Z,16.50
2018-09-23T23:38:48.319Z,16.20
2018-09-23T23:41:18.570Z,15.90
2018-09-23T23:43:48.779Z,15.70
2018-09-23T23:46:18.985Z,15.70
2018-09-23T23:48:49.183Z,15.50
2018-09-23T23:51:19.407Z,15.30
2018-09-23T23:53:49.602Z,15.10
2018-09-23T23:56:19.810Z,14.90
2018-09-23T23:58:50.009Z,14.70
